sensor_id;sensor_type;location;lat;lon;timestamp;temperature;humidity
7016;DHT22;3548;48.402;9.990;2022-07-29T00:02:13;18.80;99.90
7016;DHT22;3548;48.402;9.990;2022-07-29T00:04:39;18.80;99.90
7016;DHT22;3548;48.402;9.990;2022-07-29T00:07:04;18.80;99.90
7016;DHT22;3548;48.402;9.990;2022-07-29T00:09:31;18.80;99.90
7016;DHT22;3548;48.402;9.990;2022-07-29T00:11:59;18.80;99.90
7016;DHT22;3548;48.402;9.990;2022-07-29T00:14:25;18.80;99.90
7016;DHT22;3548;48.402;9.990;2022-07-29T00:16:51;18.80;99.90
7016;DHT22;3548;48.402;9.990;2022-07-29T00:19:16;18.90;99.90
7016;DHT22;3548;48.402;9.990;2022-07-29T00:21:42;18.80;99.90
7016;DHT22;3548;48.402;9.990;2022-07-29T00:24:08;18.90;99.90
7016;DHT22;3548;48.402;9.990;2022-07-29T00:26:33;18.90;99.90
7016;DHT22;3548;48.402;9.990;2022-07-29T00:29:00;18.90;99.90
7016;DHT22;3548;48.402;9.990;2022-07-29T00:31:26;18.90;99.90
7016;DHT22;3548;48.402;9.990;2022-07-29T00:33:52;18.90;99.90
7016;DHT22;3548;48.402;9.990;2022-07-29T00:36:17;18.90;99.90
7016;DHT22;3548;48.402;9.990;2022-07-29T00:38:43;18.90;99.90
7016;DHT22;3548;48.402;9.990;2022-07-29T00:41:11;18.80;99.90
7016;DHT22;3548;48.402;9.990;2022-07-29T00:43:37;18.70;99.90
7016;DHT22;3548;48.402;9.990;2022-07-29T00:46:02;18.70;99.90
7016;DHT22;3548;48.402;9.990;2022-07-29T00:48:28;18.70;99.90
7016;DHT22;3548;48.402;9.990;2022-07-29T00:50:55;18.70;99.90
7016;DHT22;3548;48.402;9.990;2022-07-29T00:53:22;18.60;99.90
7016;DHT22;3548;48.402;9.990;2022-07-29T00:55:49;18.70;99.90
7016;DHT22;3548;48.402;9.990;2022-07-29T00:58:15;18.60;99.90
7016;DHT22;3548;48.402;9.990;2022-07-29T01:00:40;18.60;99.90
7016;DHT22;3548;48.402;9.990;2022-07-29T01:03:07;18.60;99.90
7016;DHT22;3548;48.402;9.990;2022-07-29T01:05:34;18.60;99.90
7016;DHT22;3548;48.402;9.990;2022-07-29T01:08:00;18.50;99.90
7016;DHT22;3548;48.402;9.990;2022-07-29T01:10:27;18.50;99.90
7016;DHT22;3548;48.402;9.990;2022-07-29T01:12:55;18.50;99.90
7016;DHT22;3548;48.402;9.990;2022-07-29T01:15:22;18.50;99.90
7016;DHT22;3548;48.402;9.990;2022-07-29T01:20:51;18.50;99.90
7016;DHT22;3548;48.402;9.990;2022-07-29T01:23:58;18.50;99.90
7016;DHT22;3548;48.402;9.990;2022-07-29T01:26:45;18.50;99.90
7016;DHT22;3548;48.402;9.990;2022-07-29T01:29:32;18.50;99.90
7016;DHT22;3548;48.402;9.990;2022-07-29T01:32:11;18.50;99.90
7016;DHT22;3548;48.402;9.990;2022-07-29T01:34:50;18.50;99.90
7016;DHT22;3548;48.402;9.990;2022-07-29T01:37:22;18.50;99.90
7016;DHT22;3548;48.402;9.990;2022-07-29T01:39:51;18.50;99.90
7016;DHT22;3548;48.402;9.990;2022-07-29T01:42:27;18.50;99.90
7016;DHT22;3548;48.402;9.990;2022-07-29T01:44:59;18.50;99.90
7016;DHT22;3548;48.402;9.990;2022-07-29T01:47:33;18.50;99.90
7016;DHT22;3548;48.402;9.990;2022-07-29T01:50:00;18.50;99.90
7016;DHT22;3548;48.402;9.990;2022-07-29T01:52:42;18.60;99.90
7016;DHT22;3548;48.402;9.990;2022-07-29T01:55:13;18.60;99.90
7016;DHT22;3548;48.402;9.990;2022-07-29T01:57:40;18.60;99.90
7016;DHT22;3548;48.402;9.990;2022-07-29T02:00:08;18.60;99.90
7016;DHT22;3548;48.402;9.990;2022-07-29T02:02:35;18.60;99.90
7016;DHT22;3548;48.402;9.990;2022-07-29T02:05:03;18.60;99.90
7016;DHT22;3548;48.402;9.990;2022-07-29T02:07:32;18.60;99.90
7016;DHT22;3548;48.402;9.990;2022-07-29T02:10:00;18.60;99.90
7016;DHT22;3548;48.402;9.990;2022-07-29T02:12:28;18.60;99.90
7016;DHT22;3548;48.402;9.990;2022-07-29T02:14:55;18.60;99.90
7016;DHT22;3548;48.402;9.990;2022-07-29T02:17:35;18.60;99.90
7016;DHT22;3548;48.402;9.990;2022-07-29T02:20:04;17.50;99.90
7016;DHT22;3548;48.402;9.990;2022-07-29T02:22:31;18.60;99.90
7016;DHT22;3548;48.402;9.990;2022-07-29T02:24:58;18.50;99.90
7016;DHT22;3548;48.402;9.990;2022-07-29T02:27:25;18.50;99.90
7016;DHT22;3548;48.402;9.990;2022-07-29T02:29:53;18.50;99.90
7016;DHT22;3548;48.402;9.990;2022-07-29T02:32:22;18.50;99.90
7016;DHT22;3548;48.402;9.990;2022-07-29T02:34:50;18.40;99.90
7016;DHT22;3548;48.402;9.990;2022-07-29T02:37:16;18.30;99.90
7016;DHT22;3548;48.402;9.990;2022-07-29T02:39:43;18.30;99.90
7016;DHT22;3548;48.402;9.990;2022-07-29T02:42:12;18.30;99.90
7016;DHT22;3548;48.402;9.990;2022-07-29T02:44:39;18.20;99.90
7016;DHT22;3548;48.402;9.990;2022-07-29T02:47:13;18.20;99.90
7016;DHT22;3548;48.402;9.990;2022-07-29T02:49:57;18.20;99.90
7016;DHT22;3548;48.402;9.990;2022-07-29T02:52:34;18.20;99.90
7016;DHT22;3548;48.402;9.990;2022-07-29T02:57:36;18.20;99.90
7016;DHT22;3548;48.402;9.990;2022-07-29T03:00:05;18.10;99.90
7016;DHT22;3548;48.402;9.990;2022-07-29T03:02:35;18.10;99.90
7016;DHT22;3548;48.402;9.990;2022-07-29T03:05:03;18.10;99.90
7016;DHT22;3548;48.402;9.990;2022-07-29T03:07:29;18.10;99.90
7016;DHT22;3548;48.402;9.990;2022-07-29T03:09:56;18.10;99.90
7016;DHT22;3548;48.402;9.990;2022-07-29T03:12:22;18.10;99.90
7016;DHT22;3548;48.402;9.990;2022-07-29T03:14:48;18.10;99.90
7016;DHT22;3548;48.402;9.990;2022-07-29T03:17:15;18.10;99.90
7016;DHT22;3548;48.402;9.990;2022-07-29T03:19:40;18.10;99.90
7016;DHT22;3548;48.402;9.990;2022-07-29T03:22:07;18.00;99.90
7016;DHT22;3548;48.402;9.990;2022-07-29T03:24:34;18.00;99.90
7016;DHT22;3548;48.402;9.990;2022-07-29T03:27:00;18.00;99.90
7016;DHT22;3548;48.402;9.990;2022-07-29T03:29:27;17.90;99.90
7016;DHT22;3548;48.402;9.990;2022-07-29T03:31:53;17.90;99.90
7016;DHT22;3548;48.402;9.990;2022-07-29T03:34:19;17.90;99.90
7016;DHT22;3548;48.402;9.990;2022-07-29T03:36:45;17.90;99.90
7016;DHT22;3548;48.402;9.990;2022-07-29T03:39:12;17.80;99.90
7016;DHT22;3548;48.402;9.990;2022-07-29T03:41:39;17.80;99.90
7016;DHT22;3548;48.402;9.990;2022-07-29T03:44:07;17.80;99.90
7016;DHT22;3548;48.402;9.990;2022-07-29T03:46:35;17.80;99.90
7016;DHT22;3548;48.402;9.990;2022-07-29T03:49:05;17.80;99.90
7016;DHT22;3548;48.402;9.990;2022-07-29T03:51:33;17.80;99.90
7016;DHT22;3548;48.402;9.990;2022-07-29T03:53:59;17.80;99.90
7016;DHT22;3548;48.402;9.990;2022-07-29T03:56:27;17.20;99.90
7016;DHT22;3548;48.402;9.990;2022-07-29T03:58:53;17.80;99.90
7016;DHT22;3548;48.402;9.990;2022-07-29T04:01:20;17.80;99.90
7016;DHT22;3548;48.402;9.990;2022-07-29T04:03:46;17.80;99.90
7016;DHT22;3548;48.402;9.990;2022-07-29T04:06:12;17.80;99.90
7016;DHT22;3548;48.402;9.990;2022-07-29T04:08:38;17.80;99.90
7016;DHT22;3548;48.402;9.990;2022-07-29T04:11:04;17.80;99.90
7016;DHT22;3548;48.402;9.990;2022-07-29T04:13:30;17.90;99.90
7016;DHT22;3548;48.402;9.990;2022-07-29T04:15:56;17.90;99.90
7016;DHT22;3548;48.402;9.990;2022-07-29T04:18:22;17.90;99.90
7016;DHT22;3548;48.402;9.990;2022-07-29T04:20:48;17.90;99.90
7016;DHT22;3548;48.402;9.990;2022-07-29T04:23:14;18.00;99.90
7016;DHT22;3548;48.402;9.990;2022-07-29T04:25:40;18.00;99.90
7016;DHT22;3548;48.402;9.990;2022-07-29T04:28:07;18.10;99.90
7016;DHT22;3548;48.402;9.990;2022-07-29T04:30:34;18.20;99.90
7016;DHT22;3548;48.402;9.990;2022-07-29T04:33:01;18.30;99.90
7016;DHT22;3548;48.402;9.990;2022-07-29T04:35:28;18.40;99.90
7016;DHT22;3548;48.402;9.990;2022-07-29T04:37:54;18.50;99.90
7016;DHT22;3548;48.402;9.990;2022-07-29T04:40:20;18.70;99.90
7016;DHT22;3548;48.402;9.990;2022-07-29T04:42:45;18.90;99.90
7016;DHT22;3548;48.402;9.990;2022-07-29T04:45:11;19.10;99.90
7016;DHT22;3548;48.402;9.990;2022-07-29T04:47:36;19.20;99.90
7016;DHT22;3548;48.402;9.990;2022-07-29T04:50:02;19.30;99.90
7016;DHT22;3548;48.402;9.990;2022-07-29T04:52:28;19.40;99.90
7016;DHT22;3548;48.402;9.990;2022-07-29T04:54:53;19.50;99.90
7016;DHT22;3548;48.402;9.990;2022-07-29T04:57:19;19.70;99.90
7016;DHT22;3548;48.402;9.990;2022-07-29T04:59:44;19.80;99.90
7016;DHT22;3548;48.402;9.990;2022-07-29T05:02:10;20.10;99.90
7016;DHT22;3548;48.402;9.990;2022-07-29T05:04:35;20.40;99.90
7016;DHT22;3548;48.402;9.990;2022-07-29T05:07:01;20.70;99.90
7016;DHT22;3548;48.402;9.990;2022-07-29T05:09:27;20.80;99.90
7016;DHT22;3548;48.402;9.990;2022-07-29T05:11:52;20.80;99.90
7016;DHT22;3548;48.402;9.990;2022-07-29T05:14:18;20.70;99.90
7016;DHT22;3548;48.402;9.990;2022-07-29T05:16:43;20.60;99.90
7016;DHT22;3548;48.402;9.990;2022-07-29T05:19:09;20.60;99.90
7016;DHT22;3548;48.402;9.990;2022-07-29T05:21:34;20.60;99.90
7016;DHT22;3548;48.402;9.990;2022-07-29T05:24:00;20.60;99.90
7016;DHT22;3548;48.402;9.990;2022-07-29T05:26:26;20.60;99.90
7016;DHT22;3548;48.402;9.990;2022-07-29T05:28:51;20.60;99.90
7016;DHT22;3548;48.402;9.990;2022-07-29T05:31:19;20.60;99.90
7016;DHT22;3548;48.402;9.990;2022-07-29T05:33:44;20.70;99.90
7016;DHT22;3548;48.402;9.990;2022-07-29T05:36:10;20.70;99.90
7016;DHT22;3548;48.402;9.990;2022-07-29T05:38:37;20.80;99.90
7016;DHT22;3548;48.402;9.990;2022-07-29T05:41:05;20.90;99.90
7016;DHT22;3548;48.402;9.990;2022-07-29T05:43:32;21.00;99.90
7016;DHT22;3548;48.402;9.990;2022-07-29T05:45:58;21.00;99.90
7016;DHT22;3548;48.402;9.990;2022-07-29T05:48:23;21.00;99.90
7016;DHT22;3548;48.402;9.990;2022-07-29T05:50:49;21.10;99.90
7016;DHT22;3548;48.402;9.990;2022-07-29T05:53:15;21.00;99.90
7016;DHT22;3548;48.402;9.990;2022-07-29T05:55:41;21.20;99.90
7016;DHT22;3548;48.402;9.990;2022-07-29T05:58:07;21.20;99.90
7016;DHT22;3548;48.402;9.990;2022-07-29T06:00:32;21.10;99.90
7016;DHT22;3548;48.402;9.990;2022-07-29T06:02:58;21.20;99.90
7016;DHT22;3548;48.402;9.990;2022-07-29T06:05:23;21.10;99.90
7016;DHT22;3548;48.402;9.990;2022-07-29T06:07:49;21.00;99.90
7016;DHT22;3548;48.402;9.990;2022-07-29T06:10:14;20.90;99.90
7016;DHT22;3548;48.402;9.990;2022-07-29T06:12:40;20.90;99.90
7016;DHT22;3548;48.402;9.990;2022-07-29T06:15:05;20.80;99.90
7016;DHT22;3548;48.402;9.990;2022-07-29T06:17:31;20.80;99.90
7016;DHT22;3548;48.402;9.990;2022-07-29T06:19:57;20.90;99.90
7016;DHT22;3548;48.402;9.990;2022-07-29T06:22:22;20.80;99.90
7016;DHT22;3548;48.402;9.990;2022-07-29T06:24:49;20.90;99.90
7016;DHT22;3548;48.402;9.990;2022-07-29T06:27:15;20.90;99.90
7016;DHT22;3548;48.402;9.990;2022-07-29T06:29:41;20.80;99.90
7016;DHT22;3548;48.402;9.990;2022-07-29T06:32:07;20.90;99.90
7016;DHT22;3548;48.402;9.990;2022-07-29T06:34:34;20.90;99.90
7016;DHT22;3548;48.402;9.990;2022-07-29T06:37:00;20.90;99.90
7016;DHT22;3548;48.402;9.990;2022-07-29T06:39:28;21.00;99.90
7016;DHT22;3548;48.402;9.990;2022-07-29T06:41:53;21.00;99.90
7016;DHT22;3548;48.402;9.990;2022-07-29T06:44:19;21.10;99.90
7016;DHT22;3548;48.402;9.990;2022-07-29T06:46:44;21.20;99.90
7016;DHT22;3548;48.402;9.990;2022-07-29T06:49:12;21.20;99.90
7016;DHT22;3548;48.402;9.990;2022-07-29T06:51:39;21.20;99.90
7016;DHT22;3548;48.402;9.990;2022-07-29T06:54:04;21.20;99.90
7016;DHT22;3548;48.402;9.990;2022-07-29T06:56:31;21.30;99.90
7016;DHT22;3548;48.402;9.990;2022-07-29T06:58:57;21.30;99.90
7016;DHT22;3548;48.402;9.990;2022-07-29T07:01:23;21.30;99.90
7016;DHT22;3548;48.402;9.990;2022-07-29T07:03:48;21.20;99.90
7016;DHT22;3548;48.402;9.990;2022-07-29T07:06:14;21.10;99.90
7016;DHT22;3548;48.402;9.990;2022-07-29T07:08:39;21.10;99.90
7016;DHT22;3548;48.402;9.990;2022-07-29T07:11:05;21.10;99.90
7016;DHT22;3548;48.402;9.990;2022-07-29T07:13:32;21.10;99.90
7016;DHT22;3548;48.402;9.990;2022-07-29T07:16:00;21.30;99.90
7016;DHT22;3548;48.402;9.990;2022-07-29T07:18:26;21.30;99.90
7016;DHT22;3548;48.402;9.990;2022-07-29T07:20:51;21.40;99.90
7016;DHT22;3548;48.402;9.990;2022-07-29T07:23:17;21.50;99.90
7016;DHT22;3548;48.402;9.990;2022-07-29T07:25:42;21.60;99.90
7016;DHT22;3548;48.402;9.990;2022-07-29T07:28:08;21.70;99.90
7016;DHT22;3548;48.402;9.990;2022-07-29T07:30:34;21.70;99.90
7016;DHT22;3548;48.402;9.990;2022-07-29T07:33:00;21.70;99.90
7016;DHT22;3548;48.402;9.990;2022-07-29T07:35:26;21.60;99.90
7016;DHT22;3548;48.402;9.990;2022-07-29T07:37:53;21.60;99.90
7016;DHT22;3548;48.402;9.990;2022-07-29T07:40:19;21.60;99.90
7016;DHT22;3548;48.402;9.990;2022-07-29T07:42:44;21.60;99.90
7016;DHT22;3548;48.402;9.990;2022-07-29T07:45:10;21.70;99.90
7016;DHT22;3548;48.402;9.990;2022-07-29T07:47:37;21.70;99.90
7016;DHT22;3548;48.402;9.990;2022-07-29T07:50:05;21.70;99.90
7016;DHT22;3548;48.402;9.990;2022-07-29T07:52:31;21.80;99.90
7016;DHT22;3548;48.402;9.990;2022-07-29T07:54:57;21.90;99.90
7016;DHT22;3548;48.402;9.990;2022-07-29T07:57:22;22.10;99.90
7016;DHT22;3548;48.402;9.990;2022-07-29T07:59:48;22.20;99.90
7016;DHT22;3548;48.402;9.990;2022-07-29T08:02:14;22.20;99.90
7016;DHT22;3548;48.402;9.990;2022-07-29T08:04:39;22.10;99.90
7016;DHT22;3548;48.402;9.990;2022-07-29T08:07:06;22.10;99.90
7016;DHT22;3548;48.402;9.990;2022-07-29T08:09:33;22.00;99.90
7016;DHT22;3548;48.402;9.990;2022-07-29T08:11:59;22.00;99.90
7016;DHT22;3548;48.402;9.990;2022-07-29T08:14:27;22.00;99.90
7016;DHT22;3548;48.402;9.990;2022-07-29T08:16:53;22.00;99.90
7016;DHT22;3548;48.402;9.990;2022-07-29T08:19:19;22.20;99.90
7016;DHT22;3548;48.402;9.990;2022-07-29T08:21:45;22.30;99.90
7016;DHT22;3548;48.402;9.990;2022-07-29T08:24:10;22.40;99.90
7016;DHT22;3548;48.402;9.990;2022-07-29T08:26:54;22.50;99.90
7016;DHT22;3548;48.402;9.990;2022-07-29T08:29:20;22.70;99.90
7016;DHT22;3548;48.402;9.990;2022-07-29T08:31:45;22.90;99.90
7016;DHT22;3548;48.402;9.990;2022-07-29T08:34:11;23.00;99.90
7016;DHT22;3548;48.402;9.990;2022-07-29T08:36:37;23.10;99.90
7016;DHT22;3548;48.402;9.990;2022-07-29T08:39:04;23.20;99.90
7016;DHT22;3548;48.402;9.990;2022-07-29T08:41:30;23.30;99.90
7016;DHT22;3548;48.402;9.990;2022-07-29T08:43:56;23.50;99.90
7016;DHT22;3548;48.402;9.990;2022-07-29T08:46:22;23.60;99.90
7016;DHT22;3548;48.402;9.990;2022-07-29T08:48:48;23.60;99.90
7016;DHT22;3548;48.402;9.990;2022-07-29T08:51:16;23.80;99.90
7016;DHT22;3548;48.402;9.990;2022-07-29T08:53:43;23.90;99.90
7016;DHT22;3548;48.402;9.990;2022-07-29T08:56:13;23.90;99.90
7016;DHT22;3548;48.402;9.990;2022-07-29T08:58:39;24.00;99.90
7016;DHT22;3548;48.402;9.990;2022-07-29T09:01:07;24.10;99.90
7016;DHT22;3548;48.402;9.990;2022-07-29T09:03:36;24.20;99.90
7016;DHT22;3548;48.402;9.990;2022-07-29T09:06:03;24.30;99.90
7016;DHT22;3548;48.402;9.990;2022-07-29T09:08:31;24.40;99.90
7016;DHT22;3548;48.402;9.990;2022-07-29T09:10:57;24.40;99.90
7016;DHT22;3548;48.402;9.990;2022-07-29T09:13:23;24.50;99.90
7016;DHT22;3548;48.402;9.990;2022-07-29T09:15:50;24.40;99.90
7016;DHT22;3548;48.402;9.990;2022-07-29T09:18:36;24.40;99.90
7016;DHT22;3548;48.402;9.990;2022-07-29T09:21:03;24.40;99.90
7016;DHT22;3548;48.402;9.990;2022-07-29T09:24:04;24.40;99.90
7016;DHT22;3548;48.402;9.990;2022-07-29T09:26:31;24.50;99.90
7016;DHT22;3548;48.402;9.990;2022-07-29T09:28:58;24.60;99.90
7016;DHT22;3548;48.402;9.990;2022-07-29T09:31:35;24.70;99.90
7016;DHT22;3548;48.402;9.990;2022-07-29T09:34:00;24.90;99.90
7016;DHT22;3548;48.402;9.990;2022-07-29T09:36:26;25.20;99.90
7016;DHT22;3548;48.402;9.990;2022-07-29T09:39:02;25.60;99.90
7016;DHT22;3548;48.402;9.990;2022-07-29T09:41:29;26.00;99.90
7016;DHT22;3548;48.402;9.990;2022-07-29T09:43:59;26.10;99.90
7016;DHT22;3548;48.402;9.990;2022-07-29T09:46:25;26.30;99.90
7016;DHT22;3548;48.402;9.990;2022-07-29T09:49:11;26.40;99.90
7016;DHT22;3548;48.402;9.990;2022-07-29T09:51:38;26.50;99.90
7016;DHT22;3548;48.402;9.990;2022-07-29T09:54:26;26.50;99.90
7016;DHT22;3548;48.402;9.990;2022-07-29T09:56:53;26.50;99.90
7016;DHT22;3548;48.402;9.990;2022-07-29T09:59:19;26.50;99.60
7016;DHT22;3548;48.402;9.990;2022-07-29T10:01:51;26.30;99.80
7016;DHT22;3548;48.402;9.990;2022-07-29T10:04:18;26.20;99.90
7016;DHT22;3548;48.402;9.990;2022-07-29T10:06:58;26.20;99.90
7016;DHT22;3548;48.402;9.990;2022-07-29T10:09:24;26.90;99.90
7016;DHT22;3548;48.402;9.990;2022-07-29T10:14:31;26.80;99.90
7016;DHT22;3548;48.402;9.990;2022-07-29T10:16:57;26.80;99.90
7016;DHT22;3548;48.402;9.990;2022-07-29T10:19:23;27.00;99.90
7016;DHT22;3548;48.402;9.990;2022-07-29T10:21:49;26.90;99.10
7016;DHT22;3548;48.402;9.990;2022-07-29T10:24:15;26.80;97.60
7016;DHT22;3548;48.402;9.990;2022-07-29T10:26:42;26.70;98.30
7016;DHT22;3548;48.402;9.990;2022-07-29T10:29:07;26.60;98.50
7016;DHT22;3548;48.402;9.990;2022-07-29T10:40:36;25.70;98.90
7016;DHT22;3548;48.402;9.990;2022-07-29T10:43:32;25.40;99.40
7016;DHT22;3548;48.402;9.990;2022-07-29T10:46:01;25.10;99.70
7016;DHT22;3548;48.402;9.990;2022-07-29T10:48:28;25.00;99.90
7016;DHT22;3548;48.402;9.990;2022-07-29T10:51:03;24.90;99.90
7016;DHT22;3548;48.402;9.990;2022-07-29T10:53:55;24.80;99.90
7016;DHT22;3548;48.402;9.990;2022-07-29T11:01:50;24.80;99.90
7016;DHT22;3548;48.402;9.990;2022-07-29T11:04:40;25.00;99.90
7016;DHT22;3548;48.402;9.990;2022-07-29T11:09:30;25.10;99.80
7016;DHT22;3548;48.402;9.990;2022-07-29T11:11:57;25.10;99.90
7016;DHT22;3548;48.402;9.990;2022-07-29T11:14:58;25.30;99.90
7016;DHT22;3548;48.402;9.990;2022-07-29T11:17:24;25.40;99.90
7016;DHT22;3548;48.402;9.990;2022-07-29T11:19:50;25.50;99.80
7016;DHT22;3548;48.402;9.990;2022-07-29T11:22:32;25.60;99.90
7016;DHT22;3548;48.402;9.990;2022-07-29T11:25:18;25.70;99.20
7016;DHT22;3548;48.402;9.990;2022-07-29T11:27:44;25.90;99.20
7016;DHT22;3548;48.402;9.990;2022-07-29T11:30:10;26.00;98.80
7016;DHT22;3548;48.402;9.990;2022-07-29T11:32:41;26.20;98.30
7016;DHT22;3548;48.402;9.990;2022-07-29T11:35:14;26.30;97.90
7016;DHT22;3548;48.402;9.990;2022-07-29T11:37:40;26.40;97.40
7016;DHT22;3548;48.402;9.990;2022-07-29T11:45:16;26.60;96.10
7016;DHT22;3548;48.402;9.990;2022-07-29T11:50:15;26.20;94.60
7016;DHT22;3548;48.402;9.990;2022-07-29T11:52:43;26.00;94.20
7016;DHT22;3548;48.402;9.990;2022-07-29T11:55:14;25.90;94.30
7016;DHT22;3548;48.402;9.990;2022-07-29T11:58:00;25.80;94.30
7016;DHT22;3548;48.402;9.990;2022-07-29T12:00:30;25.70;95.00
7016;DHT22;3548;48.402;9.990;2022-07-29T12:02:57;25.60;95.40
7016;DHT22;3548;48.402;9.990;2022-07-29T12:05:41;25.60;95.20
7016;DHT22;3548;48.402;9.990;2022-07-29T12:08:29;25.50;95.70
7016;DHT22;3548;48.402;9.990;2022-07-29T12:10:54;25.60;95.40
7016;DHT22;3548;48.402;9.990;2022-07-29T12:13:21;25.80;95.20
7016;DHT22;3548;48.402;9.990;2022-07-29T12:15:56;26.00;95.30
7016;DHT22;3548;48.402;9.990;2022-07-29T12:18:22;26.20;94.50
7016;DHT22;3548;48.402;9.990;2022-07-29T12:20:49;26.20;94.20
7016;DHT22;3548;48.402;9.990;2022-07-29T12:23:21;26.30;93.70
7016;DHT22;3548;48.402;9.990;2022-07-29T12:25:47;26.40;94.00
7016;DHT22;3548;48.402;9.990;2022-07-29T12:28:14;26.50;93.70
7016;DHT22;3548;48.402;9.990;2022-07-29T12:30:42;26.60;93.40
7016;DHT22;3548;48.402;9.990;2022-07-29T12:35:46;26.80;93.60
7016;DHT22;3548;48.402;9.990;2022-07-29T12:38:13;27.20;93.40
7016;DHT22;3548;48.402;9.990;2022-07-29T12:40:39;27.60;93.00
7016;DHT22;3548;48.402;9.990;2022-07-29T12:43:14;28.10;92.60
7016;DHT22;3548;48.402;9.990;2022-07-29T12:45:41;28.50;92.00
7016;DHT22;3548;48.402;9.990;2022-07-29T12:48:08;28.80;91.30
7016;DHT22;3548;48.402;9.990;2022-07-29T12:50:35;29.00;90.90
7016;DHT22;3548;48.402;9.990;2022-07-29T12:53:13;28.90;91.30
7016;DHT22;3548;48.402;9.990;2022-07-29T12:55:44;28.80;91.50
7016;DHT22;3548;48.402;9.990;2022-07-29T13:01:04;28.80;91.80
7016;DHT22;3548;48.402;9.990;2022-07-29T13:03:51;28.90;91.20
7016;DHT22;3548;48.402;9.990;2022-07-29T13:11:38;29.60;85.00
7016;DHT22;3548;48.402;9.990;2022-07-29T13:14:07;29.60;82.70
7016;DHT22;3548;48.402;9.990;2022-07-29T13:16:34;29.50;81.10
7016;DHT22;3548;48.402;9.990;2022-07-29T13:19:08;29.20;81.40
7016;DHT22;3548;48.402;9.990;2022-07-29T13:21:34;28.70;83.60
7016;DHT22;3548;48.402;9.990;2022-07-29T13:24:00;28.20;85.00
7016;DHT22;3548;48.402;9.990;2022-07-29T13:26:25;27.60;86.80
7016;DHT22;3548;48.402;9.990;2022-07-29T13:28:51;27.10;88.60
7016;DHT22;3548;48.402;9.990;2022-07-29T13:31:16;26.60;88.40
7016;DHT22;3548;48.402;9.990;2022-07-29T13:33:42;26.20;88.70
7016;DHT22;3548;48.402;9.990;2022-07-29T13:36:07;25.90;88.80
7016;DHT22;3548;48.402;9.990;2022-07-29T13:38:33;25.60;91.30
7016;DHT22;3548;48.402;9.990;2022-07-29T13:40:59;24.70;92.80
7016;DHT22;3548;48.402;9.990;2022-07-29T13:43:25;23.10;99.80
7016;DHT22;3548;48.402;9.990;2022-07-29T13:45:51;21.30;99.90
7016;DHT22;3548;48.402;9.990;2022-07-29T13:48:17;19.70;99.90
7016;DHT22;3548;48.402;9.990;2022-07-29T13:50:42;18.50;99.90
7016;DHT22;3548;48.402;9.990;2022-07-29T13:53:08;17.60;99.90
7016;DHT22;3548;48.402;9.990;2022-07-29T13:55:33;17.10;99.90
7016;DHT22;3548;48.402;9.990;2022-07-29T13:58:00;16.70;99.90
7016;DHT22;3548;48.402;9.990;2022-07-29T14:00:25;16.50;99.90
7016;DHT22;3548;48.402;9.990;2022-07-29T14:02:51;16.50;99.90
7016;DHT22;3548;48.402;9.990;2022-07-29T14:05:17;16.60;99.90
7016;DHT22;3548;48.402;9.990;2022-07-29T14:07:43;16.70;99.90
7016;DHT22;3548;48.402;9.990;2022-07-29T14:10:09;16.90;99.90
7016;DHT22;3548;48.402;9.990;2022-07-29T14:12:34;17.00;99.90
7016;DHT22;3548;48.402;9.990;2022-07-29T14:15:00;17.20;99.90
7016;DHT22;3548;48.402;9.990;2022-07-29T14:17:26;17.50;99.90
7016;DHT22;3548;48.402;9.990;2022-07-29T14:19:52;17.60;99.90
7016;DHT22;3548;48.402;9.990;2022-07-29T14:22:17;17.80;99.90
7016;DHT22;3548;48.402;9.990;2022-07-29T14:24:44;17.90;99.90
7016;DHT22;3548;48.402;9.990;2022-07-29T14:27:10;17.90;99.90
7016;DHT22;3548;48.402;9.990;2022-07-29T14:29:37;17.90;99.90
7016;DHT22;3548;48.402;9.990;2022-07-29T14:32:02;17.90;99.90
7016;DHT22;3548;48.402;9.990;2022-07-29T14:34:28;17.90;99.90
7016;DHT22;3548;48.402;9.990;2022-07-29T14:36:54;17.90;99.90
7016;DHT22;3548;48.402;9.990;2022-07-29T14:39:21;18.00;99.90
7016;DHT22;3548;48.402;9.990;2022-07-29T14:41:48;18.00;99.90
7016;DHT22;3548;48.402;9.990;2022-07-29T14:44:14;18.00;99.90
7016;DHT22;3548;48.402;9.990;2022-07-29T14:46:39;18.00;99.90
7016;DHT22;3548;48.402;9.990;2022-07-29T14:49:05;18.10;99.90
7016;DHT22;3548;48.402;9.990;2022-07-29T14:51:31;18.10;99.90
7016;DHT22;3548;48.402;9.990;2022-07-29T14:53:57;18.10;99.90
7016;DHT22;3548;48.402;9.990;2022-07-29T14:56:23;18.10;99.90
7016;DHT22;3548;48.402;9.990;2022-07-29T14:58:48;18.20;99.90
7016;DHT22;3548;48.402;9.990;2022-07-29T15:01:14;18.20;99.90
7016;DHT22;3548;48.402;9.990;2022-07-29T15:03:40;18.30;99.90
7016;DHT22;3548;48.402;9.990;2022-07-29T15:06:05;18.30;99.90
7016;DHT22;3548;48.402;9.990;2022-07-29T15:08:31;18.30;99.90
7016;DHT22;3548;48.402;9.990;2022-07-29T15:10:57;18.40;99.90
7016;DHT22;3548;48.402;9.990;2022-07-29T15:13:26;18.40;99.90
7016;DHT22;3548;48.402;9.990;2022-07-29T15:15:51;18.40;99.90
7016;DHT22;3548;48.402;9.990;2022-07-29T15:18:17;18.40;99.90
7016;DHT22;3548;48.402;9.990;2022-07-29T15:20:43;18.40;99.90
7016;DHT22;3548;48.402;9.990;2022-07-29T15:23:11;18.30;99.90
7016;DHT22;3548;48.402;9.990;2022-07-29T15:25:38;18.30;99.90
7016;DHT22;3548;48.402;9.990;2022-07-29T15:28:04;18.30;99.90
7016;DHT22;3548;48.402;9.990;2022-07-29T15:30:33;18.30;99.90
7016;DHT22;3548;48.402;9.990;2022-07-29T15:32:59;18.30;99.90
7016;DHT22;3548;48.402;9.990;2022-07-29T15:35:25;18.30;99.90
7016;DHT22;3548;48.402;9.990;2022-07-29T15:37:50;18.30;99.90
7016;DHT22;3548;48.402;9.990;2022-07-29T15:40:16;18.30;99.90
7016;DHT22;3548;48.402;9.990;2022-07-29T15:42:41;18.30;99.90
7016;DHT22;3548;48.402;9.990;2022-07-29T15:45:07;18.40;99.90
7016;DHT22;3548;48.402;9.990;2022-07-29T15:47:35;18.40;99.90
7016;DHT22;3548;48.402;9.990;2022-07-29T15:50:00;18.50;99.90
7016;DHT22;3548;48.402;9.990;2022-07-29T15:52:26;18.50;99.90
7016;DHT22;3548;48.402;9.990;2022-07-29T15:54:53;18.60;99.90
7016;DHT22;3548;48.402;9.990;2022-07-29T15:57:19;18.60;99.90
7016;DHT22;3548;48.402;9.990;2022-07-29T15:59:44;18.60;99.90
7016;DHT22;3548;48.402;9.990;2022-07-29T16:02:10;18.60;99.90
7016;DHT22;3548;48.402;9.990;2022-07-29T16:04:35;18.60;99.90
7016;DHT22;3548;48.402;9.990;2022-07-29T16:07:01;18.60;99.90
7016;DHT22;3548;48.402;9.990;2022-07-29T16:09:28;18.60;99.90
7016;DHT22;3548;48.402;9.990;2022-07-29T16:11:53;18.70;99.90
7016;DHT22;3548;48.402;9.990;2022-07-29T16:14:20;18.70;99.90
7016;DHT22;3548;48.402;9.990;2022-07-29T16:16:46;18.70;99.90
7016;DHT22;3548;48.402;9.990;2022-07-29T16:19:11;18.80;99.90
7016;DHT22;3548;48.402;9.990;2022-07-29T16:21:37;18.80;99.90
7016;DHT22;3548;48.402;9.990;2022-07-29T16:24:04;18.70;99.90
7016;DHT22;3548;48.402;9.990;2022-07-29T16:26:30;18.70;99.90
7016;DHT22;3548;48.402;9.990;2022-07-29T16:28:55;18.80;99.90
7016;DHT22;3548;48.402;9.990;2022-07-29T16:31:21;18.70;99.90
7016;DHT22;3548;48.402;9.990;2022-07-29T16:33:48;18.80;99.90
7016;DHT22;3548;48.402;9.990;2022-07-29T16:36:14;18.80;99.90
7016;DHT22;3548;48.402;9.990;2022-07-29T16:38:39;18.80;99.90
7016;DHT22;3548;48.402;9.990;2022-07-29T16:41:06;18.80;99.90
7016;DHT22;3548;48.402;9.990;2022-07-29T16:43:32;18.90;99.90
7016;DHT22;3548;48.402;9.990;2022-07-29T16:45:57;18.90;99.90
7016;DHT22;3548;48.402;9.990;2022-07-29T16:48:23;18.90;99.90
7016;DHT22;3548;48.402;9.990;2022-07-29T16:50:48;18.80;99.90